Cropsey, Illinois
Current Conditions -  °F | °C
As of 6:15 AM on Saturday 25 Oct 2014 (Local Time) from KPNT Reporting Station
Overcast Overcast  
Wind Chill: 56°   Ceiling: 600
Heat Index: 56°   Visibility: 7mi
Dew Point: 54°   Wind: 3mph
Humidity: 92%   Direction: 290°WNW
Pressure: 29.96"   Gusts: NA
Location:  40.61°N, 88.48°W
Report Text: KPNT 251115Z AUTO 29003KT 7SM OVC006 13/12 A2996 RMK AO2 T01340122
Loading
Personal Weather Stations






























Interactive Weather Map
Tropical Storm Tracking
New forecast layout! Learn more

10-Day Weather Forecast

Advertisements
Track Severe Weather on mobile